createdAt,value
2017-04-09T00:00:02.726Z,0
2017-04-09T00:05:02.777Z,0
2017-04-09T00:10:02.622Z,0
2017-04-09T00:15:03.455Z,0
2017-04-09T00:20:03.079Z,0
2017-04-09T00:25:02.685Z,0
2017-04-09T00:30:03.367Z,0
2017-04-09T00:35:03.161Z,0
2017-04-09T00:40:02.761Z,0
2017-04-09T00:45:02.577Z,0
2017-04-09T00:50:03.296Z,0
2017-04-09T00:55:02.894Z,0
2017-04-09T01:00:02.516Z,0
2017-04-09T01:05:03.409Z,0
2017-04-09T01:10:03.261Z,0
2017-04-09T01:15:03.075Z,0
2017-04-09T01:20:02.784Z,0
2017-04-09T01:25:03.468Z,0
2017-04-09T01:30:03.237Z,0
2017-04-09T01:35:02.995Z,0
2017-04-09T01:40:02.861Z,0
2017-04-09T01:45:02.604Z,0
2017-04-09T01:50:03.184Z,0
2017-04-09T01:55:02.923Z,0
2017-04-09T02:00:02.753Z,0
2017-04-09T02:05:03.424Z,0
2017-04-09T02:10:03.044Z,0
2017-04-09T02:15:02.667Z,0
2017-04-09T02:20:03.406Z,0
2017-04-09T02:25:03.131Z,0
2017-04-09T02:30:02.859Z,0
2017-04-09T02:35:02.467Z,0
2017-04-09T02:40:03.186Z,0
2017-04-09T02:45:02.865Z,0
2017-04-09T02:50:02.589Z,0
2017-04-09T02:55:03.199Z,0
2017-04-09T03:00:02.901Z,0
2017-04-09T03:05:02.591Z,0
2017-04-09T03:10:03.319Z,0
2017-04-09T03:15:03.109Z,0
2017-04-09T03:20:02.864Z,0
2017-04-09T03:25:02.628Z,0
2017-04-09T03:30:03.329Z,0
2017-04-09T03:35:03.185Z,0
2017-04-09T03:40:03.021Z,0
2017-04-09T03:45:02.836Z,0
2017-04-09T03:50:02.586Z,0
2017-04-09T03:55:03.196Z,0
2017-04-09T04:00:03.081Z,0
2017-04-09T04:05:02.792Z,0
2017-04-09T04:10:02.462Z,0
2017-04-09T04:15:03.099Z,0
2017-04-09T04:20:03.048Z,1
2017-04-09T04:25:02.666Z,4
2017-04-09T04:30:04.345Z,10
2017-04-09T04:35:02.928Z,28
2017-04-09T04:40:02.782Z,40
2017-04-09T04:45:03.425Z,57
2017-04-09T04:50:03.144Z,103
2017-04-09T04:55:02.722Z,270
2017-04-09T05:00:02.446Z,374
2017-04-09T05:05:03.094Z,499
2017-04-09T05:10:02.897Z,629
2017-04-09T05:15:02.714Z,754
2017-04-09T05:20:03.286Z,862
2017-04-09T05:25:02.899Z,1000
2017-04-09T05:30:02.646Z,1000
2017-04-09T05:35:02.502Z,1000
2017-04-09T05:40:03.269Z,1000
2017-04-09T05:45:02.947Z,1000
2017-04-09T05:50:02.516Z,1000
2017-04-09T05:55:03.130Z,2000
2017-04-09T06:00:02.886Z,2000
2017-04-09T06:05:02.708Z,2000
2017-04-09T06:10:03.382Z,2000
2017-04-09T06:15:03.172Z,2000
2017-04-09T06:20:02.731Z,3000
2017-04-09T06:25:03.343Z,3000
2017-04-09T06:30:03.157Z,3000
2017-04-09T06:35:02.936Z,3000
2017-04-09T06:40:02.783Z,3000
2017-04-09T06:45:03.388Z,3000
2017-04-09T06:50:03.020Z,4000
2017-04-09T06:55:02.853Z,4000
2017-04-09T07:00:02.868Z,4000
2017-04-09T07:05:02.655Z,4000
2017-04-09T07:10:03.274Z,4000
2017-04-09T07:15:03.006Z,5000
2017-04-09T07:20:02.686Z,5000
2017-04-09T07:25:02.505Z,5000
2017-04-09T07:30:03.444Z,5000
2017-04-09T07:35:03.000Z,6000
2017-04-09T07:40:02.686Z,6000
2017-04-09T07:45:02.534Z,6000
2017-04-09T07:50:03.182Z,6000
2017-04-09T07:55:02.960Z,7000
2017-04-09T08:00:02.771Z,8000
2017-04-09T08:05:03.509Z,33000
2017-04-09T08:10:03.183Z,35000
2017-04-09T08:15:02.834Z,36000
2017-04-09T08:20:02.474Z,37000
2017-04-09T08:25:03.185Z,38000
2017-04-09T08:30:02.821Z,38000
2017-04-09T08:35:02.493Z,39000
2017-04-09T08:40:03.403Z,40000
2017-04-09T08:45:03.003Z,42000
2017-04-09T08:50:02.754Z,44000
2017-04-09T08:55:03.409Z,45000
2017-04-09T09:00:03.187Z,47000
2017-04-09T09:05:02.997Z,48000
2017-04-09T09:10:02.961Z,48000
2017-04-09T09:15:02.567Z,50000
2017-04-09T09:20:03.358Z,49000
2017-04-09T09:25:03.258Z,51000
2017-04-09T09:30:03.104Z,51000
2017-04-09T09:35:03.081Z,49000
2017-04-09T09:40:03.098Z,52000
2017-04-09T09:45:02.795Z,51000
2017-04-09T09:50:02.508Z,54000
2017-04-09T09:55:03.264Z,55000
2017-04-09T10:00:03.132Z,54000
2017-04-09T10:05:02.904Z,53000
2017-04-09T10:10:02.749Z,52000
2017-04-09T10:15:02.592Z,53000
2017-04-09T10:20:03.255Z,52000
2017-04-09T10:25:03.147Z,53000
2017-04-09T10:30:02.789Z,53000
2017-04-09T10:35:02.577Z,52000
2017-04-09T10:40:02.454Z,52000
2017-04-09T10:45:03.404Z,54000
2017-04-09T10:50:02.550Z,53000
2017-04-09T10:55:02.731Z,52000
2017-04-09T11:00:02.739Z,52000
2017-04-09T11:05:02.624Z,53000
2017-04-09T11:10:02.428Z,54000
2017-04-09T11:15:03.268Z,53000
2017-04-09T11:20:03.027Z,53000
2017-04-09T11:25:02.821Z,54000
2017-04-09T11:30:02.643Z,52000
2017-04-09T11:35:02.481Z,52000
2017-04-09T11:40:03.234Z,52000
2017-04-09T11:45:02.959Z,53000
2017-04-09T11:50:02.624Z,52000
2017-04-09T11:55:03.348Z,54000
2017-04-09T12:00:03.130Z,51000
2017-04-09T12:05:02.774Z,48000
2017-04-09T12:10:02.721Z,51000
2017-04-09T12:15:02.587Z,51000
2017-04-09T12:20:03.208Z,49000
2017-04-09T12:25:02.861Z,49000
2017-04-09T12:30:02.674Z,48000
2017-04-09T12:35:03.434Z,48000
2017-04-09T12:40:03.211Z,46000
2017-04-09T12:45:02.847Z,46000
2017-04-09T12:50:02.664Z,45000
2017-04-09T12:55:02.496Z,45000
2017-04-09T13:00:03.316Z,44000
2017-04-09T13:05:03.292Z,42000
2017-04-09T13:10:03.315Z,42000
2017-04-09T13:15:02.954Z,40000
2017-04-09T13:20:02.728Z,40000
2017-04-09T13:25:02.612Z,38000
2017-04-09T13:30:03.275Z,38000
2017-04-09T13:35:03.094Z,37000
2017-04-09T13:40:02.728Z,36000
2017-04-09T13:45:03.366Z,35000
2017-04-09T13:50:03.140Z,34000
2017-04-09T13:55:03.125Z,34000
2017-04-09T14:00:02.527Z,33000
2017-04-09T14:05:02.595Z,33000
2017-04-09T14:10:03.390Z,33000
2017-04-09T14:15:02.912Z,32000
2017-04-09T14:20:02.871Z,31000
2017-04-09T14:25:02.784Z,31000
2017-04-09T14:30:02.589Z,29000
2017-04-09T14:35:02.887Z,30000
2017-04-09T14:40:03.083Z,29000
2017-04-09T14:45:02.878Z,27000
2017-04-09T14:50:03.289Z,26000
2017-04-09T14:55:02.601Z,26000
2017-04-09T15:00:03.481Z,25000
2017-04-09T15:05:03.288Z,25000
2017-04-09T15:10:03.027Z,24000
2017-04-09T15:15:02.796Z,23000
2017-04-09T15:20:02.508Z,22000
2017-04-09T15:25:03.334Z,22000
2017-04-09T15:30:03.151Z,21000
2017-04-09T15:35:02.791Z,20000
2017-04-09T15:40:02.505Z,19000
2017-04-09T15:45:03.388Z,19000
2017-04-09T15:50:03.306Z,19000
2017-04-09T15:55:03.263Z,18000
2017-04-09T16:00:02.896Z,17000
2017-04-09T16:05:02.686Z,17000
2017-04-09T16:10:03.312Z,17000
2017-04-09T16:15:03.130Z,16000
2017-04-09T16:20:02.731Z,15000
2017-04-09T16:25:03.532Z,14000
2017-04-09T16:30:03.220Z,13000
2017-04-09T16:35:02.996Z,13000
2017-04-09T16:40:02.809Z,12000
2017-04-09T16:45:02.561Z,11000
2017-04-09T16:50:03.291Z,11000
2017-04-09T16:55:03.095Z,10000
2017-04-09T17:00:02.874Z,9000
2017-04-09T17:05:02.562Z,8000
2017-04-09T17:10:03.307Z,8000
2017-04-09T17:15:03.096Z,7000
2017-04-09T17:20:02.955Z,6000
2017-04-09T17:25:02.802Z,6000
2017-04-09T17:30:02.508Z,5000
2017-04-09T17:35:03.458Z,4000
2017-04-09T17:40:03.163Z,3000
2017-04-09T17:45:02.813Z,2000
2017-04-09T17:50:02.523Z,1000
2017-04-09T17:55:03.243Z,1000
2017-04-09T18:00:03.205Z,773
2017-04-09T18:05:02.919Z,649
2017-04-09T18:10:02.689Z,523
2017-04-09T18:15:03.265Z,392
2017-04-09T18:20:03.034Z,131
2017-04-09T18:25:02.828Z,76
2017-04-09T18:30:02.512Z,62
2017-04-09T18:35:03.184Z,40
2017-04-09T18:40:03.017Z,27
2017-04-09T18:45:02.821Z,13
2017-04-09T18:50:03.475Z,6
2017-04-09T18:55:03.215Z,2
2017-04-09T19:00:03.026Z,1
2017-04-09T19:05:02.723Z,0
2017-04-09T19:10:02.560Z,0
2017-04-09T19:15:03.125Z,0
2017-04-09T19:20:02.855Z,0
2017-04-09T19:25:02.546Z,0
2017-04-09T19:30:03.363Z,0
2017-04-09T19:35:03.208Z,0
2017-04-09T19:40:02.971Z,0
2017-04-09T19:45:02.674Z,0
2017-04-09T19:50:03.496Z,0
2017-04-09T19:55:03.231Z,0
2017-04-09T20:00:02.933Z,0
2017-04-09T20:05:02.573Z,0
2017-04-09T20:10:02.650Z,0
2017-04-09T20:15:03.352Z,0
2017-04-09T20:20:03.085Z,0
2017-04-09T20:25:02.852Z,0
2017-04-09T20:30:03.482Z,0
2017-04-09T20:35:03.317Z,0
2017-04-09T20:40:03.247Z,0
2017-04-09T20:45:03.035Z,0
2017-04-09T20:50:02.840Z,0
2017-04-09T20:55:02.540Z,0
2017-04-09T21:00:03.564Z,0
2017-04-09T21:05:03.292Z,0
2017-04-09T21:10:03.192Z,0
2017-04-09T21:15:02.780Z,0
2017-04-09T21:20:02.633Z,0
2017-04-09T21:25:03.479Z,0
2017-04-09T21:30:03.193Z,0
2017-04-09T21:35:02.808Z,0
2017-04-09T21:40:02.738Z,0
2017-04-09T21:45:03.457Z,0
2017-04-09T21:50:03.195Z,0
2017-04-09T21:55:02.913Z,0
2017-04-09T22:00:09.541Z,0
2017-04-09T22:05:03.125Z,0
2017-04-09T22:10:02.992Z,0
2017-04-09T22:15:02.653Z,0
2017-04-09T22:20:03.347Z,0
2017-04-09T22:25:02.978Z,0
2017-04-09T22:30:02.628Z,0
2017-04-09T22:35:03.354Z,0
2017-04-09T22:40:03.085Z,0
2017-04-09T22:45:02.800Z,0
2017-04-09T22:50:02.576Z,0
2017-04-09T22:55:03.242Z,0
2017-04-09T23:00:02.820Z,0
2017-04-09T23:05:02.679Z,0
2017-04-09T23:10:03.458Z,0
2017-04-09T23:15:03.287Z,0
2017-04-09T23:20:02.996Z,0
2017-04-09T23:25:02.765Z,0
2017-04-09T23:30:02.511Z,0
2017-04-09T23:35:03.344Z,0
2017-04-09T23:40:03.211Z,0
2017-04-09T23:45:02.945Z,0
2017-04-09T23:50:02.768Z,0
2017-04-09T23:55:03.432Z,0
